createdAt,value
2022-10-23T00:01:50.168Z,6.90
2022-10-23T00:04:22.182Z,7.23
2022-10-23T00:06:51.414Z,7.37
2022-10-23T00:09:22.338Z,6.70
2022-10-23T00:11:52.000Z,6.87
2022-10-23T00:14:23.581Z,7.23
2022-10-23T00:16:53.625Z,8.60
2022-10-23T00:19:22.532Z,8.60
2022-10-23T00:21:51.401Z,6.60
2022-10-23T00:24:20.558Z,6.80
2022-10-23T00:26:50.530Z,6.70
2022-10-23T00:29:19.402Z,7.07
2022-10-23T00:31:48.395Z,6.67
2022-10-23T00:34:21.078Z,6.80
2022-10-23T00:36:49.870Z,7.40
2022-10-23T00:39:18.739Z,7.27
2022-10-23T00:41:47.956Z,7.00
2022-10-23T00:45:09.841Z,6.67
2022-10-23T00:47:39.380Z,7.00
2022-10-23T00:50:10.251Z,7.30
2022-10-23T00:52:43.631Z,7.30
2022-10-23T00:55:13.372Z,6.93
2022-10-23T00:57:45.082Z,6.50
2022-10-23T01:00:18.423Z,7.17
2022-10-23T01:02:47.830Z,6.47
2022-10-23T01:05:18.917Z,6.43
2022-10-23T01:07:53.722Z,7.33
2022-10-23T01:10:33.216Z,9.50
2022-10-23T01:13:09.437Z,6.30
2022-10-23T01:15:44.465Z,6.40
2022-10-23T01:18:22.051Z,6.63
2022-10-23T01:21:02.638Z,8.77
2022-10-23T01:23:50.652Z,6.40
2022-10-23T01:26:32.370Z,6.47
2022-10-23T01:29:09.211Z,6.47
2022-10-23T01:31:43.755Z,6.67
2022-10-23T01:34:16.088Z,7.80
2022-10-23T01:36:49.738Z,6.70
2022-10-23T01:39:23.204Z,7.17
2022-10-23T01:41:56.189Z,7.73
2022-10-23T01:44:35.094Z,7.03
2022-10-23T01:47:06.726Z,8.03
2022-10-23T01:49:43.844Z,8.20
2022-10-23T01:52:15.182Z,7.70
2022-10-23T01:54:50.547Z,8.10
2022-10-23T01:57:21.773Z,8.47
2022-10-23T01:59:59.123Z,8.17
2022-10-23T02:02:29.151Z,8.17
2022-10-23T02:05:04.670Z,9.00
2022-10-23T02:07:34.382Z,8.90
2022-10-23T02:10:04.866Z,8.00
2022-10-23T02:12:44.226Z,9.13
2022-10-23T02:15:22.254Z,9.13
2022-10-23T02:17:59.552Z,9.97
2022-10-23T02:20:35.663Z,10.13
2022-10-23T02:23:13.549Z,10.87
2022-10-23T02:25:50.218Z,11.33
2022-10-23T02:28:25.095Z,10.83
2022-10-23T02:31:01.378Z,13.33
2022-10-23T02:33:35.041Z,13.37
2022-10-23T02:36:04.272Z,13.30
2022-10-23T02:38:37.500Z,12.93
2022-10-23T02:41:19.368Z,12.00
2022-10-23T02:43:57.807Z,13.33
2022-10-23T02:46:33.758Z,12.23
2022-10-23T02:49:11.179Z,13.37
2022-10-23T02:51:50.698Z,12.33
2022-10-23T02:54:52.458Z,11.70
2022-10-23T02:57:30.402Z,12.00
2022-10-23T03:00:05.492Z,11.77
2022-10-23T03:02:40.872Z,12.37
2022-10-23T03:05:13.304Z,11.40
2022-10-23T03:07:43.151Z,11.80
2022-10-23T03:10:13.705Z,12.57
2022-10-23T03:12:43.343Z,12.23
2022-10-23T03:15:13.197Z,12.57
2022-10-23T03:17:44.615Z,12.77
2022-10-23T03:20:13.880Z,12.47
2022-10-23T03:22:45.115Z,13.03
2022-10-23T03:25:14.179Z,12.57
2022-10-23T03:27:43.090Z,12.80
2022-10-23T03:30:16.577Z,12.27
2022-10-23T03:32:47.664Z,12.60
2022-10-23T03:35:16.865Z,12.00
2022-10-23T03:37:46.128Z,11.97
2022-10-23T03:40:15.614Z,11.63
2022-10-23T03:42:44.547Z,11.73
2022-10-23T03:45:17.880Z,11.03
2022-10-23T03:47:48.714Z,10.90
2022-10-23T03:50:18.511Z,11.30
2022-10-23T03:52:48.297Z,11.60
2022-10-23T03:55:17.311Z,11.50
2022-10-23T03:57:46.402Z,12.07
2022-10-23T04:00:15.643Z,10.60
2022-10-23T04:02:50.322Z,12.97
2022-10-23T04:05:20.956Z,12.17
2022-10-23T04:07:56.316Z,13.40
2022-10-23T04:10:25.582Z,13.60
2022-10-23T04:12:54.513Z,12.70
2022-10-23T04:15:23.358Z,12.63
2022-10-23T04:17:53.534Z,13.37
2022-10-23T04:20:22.498Z,13.27
2022-10-23T04:22:53.166Z,13.07
2022-10-23T04:25:22.299Z,12.87
2022-10-23T04:27:51.356Z,13.27
2022-10-23T04:30:20.412Z,12.20
2022-10-23T04:32:52.989Z,12.33
2022-10-23T04:35:22.295Z,12.37
2022-10-23T04:37:51.169Z,11.93
2022-10-23T04:40:20.922Z,11.53
2022-10-23T04:42:50.166Z,11.23
2022-10-23T04:45:19.327Z,11.10
2022-10-23T04:47:49.144Z,10.40
2022-10-23T04:50:19.455Z,10.33
2022-10-23T04:53:07.003Z,9.13
2022-10-23T04:55:50.672Z,10.33
2022-10-23T04:58:32.939Z,10.13
2022-10-23T05:01:02.398Z,10.50
2022-10-23T05:03:31.654Z,10.37
2022-10-23T05:06:02.483Z,10.03
2022-10-23T05:08:50.071Z,9.60
2022-10-23T05:11:24.673Z,9.97
2022-10-23T05:13:54.213Z,10.03
2022-10-23T05:16:33.959Z,9.97
2022-10-23T05:19:03.577Z,9.83
2022-10-23T05:21:36.753Z,9.87
2022-10-23T05:24:08.931Z,9.57
2022-10-23T05:26:37.930Z,9.23
2022-10-23T05:29:09.835Z,9.83
2022-10-23T05:31:38.907Z,10.50
2022-10-23T05:34:13.829Z,9.63
2022-10-23T05:36:48.095Z,10.07
2022-10-23T05:39:17.796Z,9.80
2022-10-23T05:41:47.759Z,10.67
2022-10-23T05:44:22.588Z,10.47
2022-10-23T05:47:10.918Z,9.97
2022-10-23T05:50:06.621Z,10.43
2022-10-23T05:52:52.663Z,10.63
2022-10-23T05:55:34.012Z,11.03
2022-10-23T05:58:18.009Z,9.53
2022-10-23T06:01:07.629Z,10.70
2022-10-23T06:03:59.296Z,10.87
2022-10-23T06:06:42.250Z,9.90
2022-10-23T06:09:12.485Z,11.33
2022-10-23T06:11:42.691Z,10.50
2022-10-23T06:14:17.460Z,9.90
2022-10-23T06:16:46.868Z,10.83
2022-10-23T06:19:16.920Z,11.10
2022-10-23T06:21:46.425Z,10.47
2022-10-23T06:24:18.288Z,10.13
2022-10-23T06:27:01.126Z,10.80
2022-10-23T06:29:41.616Z,11.13
2022-10-23T06:32:10.571Z,10.60
2022-10-23T06:34:40.375Z,10.77
2022-10-23T06:37:11.039Z,10.60
2022-10-23T06:39:48.414Z,10.33
2022-10-23T06:42:17.433Z,10.23
2022-10-23T06:45:00.367Z,10.60
2022-10-23T06:47:51.633Z,9.87
2022-10-23T06:50:39.562Z,11.70
2022-10-23T06:53:14.280Z,11.33
2022-10-23T06:55:53.052Z,9.77
2022-10-23T06:58:25.772Z,9.93
2022-10-23T07:01:02.663Z,10.77
2022-10-23T07:03:32.149Z,11.07
2022-10-23T07:06:01.971Z,10.33
2022-10-23T07:08:31.220Z,9.87
2022-10-23T07:11:07.033Z,9.77
2022-10-23T07:13:38.495Z,9.73
2022-10-23T07:16:21.520Z,9.87
2022-10-23T07:18:58.632Z,10.57
2022-10-23T07:21:48.187Z,9.47
2022-10-23T07:24:24.801Z,11.10
2022-10-23T07:26:56.114Z,10.33
2022-10-23T07:29:27.219Z,9.50
2022-10-23T07:31:57.412Z,10.50
2022-10-23T07:34:45.264Z,10.37
2022-10-23T07:37:26.498Z,11.07
2022-10-23T07:39:55.768Z,11.10
2022-10-23T07:42:27.109Z,10.87
2022-10-23T07:44:55.931Z,9.70
2022-10-23T07:47:25.111Z,10.80
2022-10-23T07:49:54.853Z,11.73
2022-10-23T07:52:23.810Z,10.73
2022-10-23T07:55:10.993Z,10.70
2022-10-23T07:57:47.022Z,10.13
2022-10-23T08:00:45.279Z,11.37
2022-10-23T08:03:26.042Z,18.00
2022-10-23T08:05:56.449Z,10.90
2022-10-23T08:08:26.815Z,9.90
2022-10-23T08:11:02.855Z,11.27
2022-10-23T08:13:38.951Z,10.67
2022-10-23T08:16:09.298Z,10.40
2022-10-23T08:19:05.278Z,10.33
2022-10-23T08:21:35.189Z,9.93
2022-10-23T08:24:05.604Z,11.07
2022-10-23T08:26:34.823Z,10.03
2022-10-23T08:29:04.914Z,10.70
2022-10-23T08:31:34.005Z,9.43
2022-10-23T08:34:21.841Z,10.43
2022-10-23T08:36:53.004Z,10.07
2022-10-23T08:39:22.335Z,10.10
2022-10-23T08:42:20.280Z,9.77
2022-10-23T08:45:00.121Z,9.83
2022-10-23T08:47:37.457Z,10.47
2022-10-23T08:50:33.094Z,9.43
2022-10-23T08:53:10.339Z,10.07
2022-10-23T08:55:43.462Z,9.00
2022-10-23T08:58:18.578Z,9.87
2022-10-23T09:00:50.746Z,9.83
2022-10-23T09:03:20.007Z,10.50
2022-10-23T09:06:07.528Z,10.27
2022-10-23T09:08:48.189Z,11.03
2022-10-23T09:11:24.055Z,10.83
2022-10-23T09:14:41.753Z,10.43
2022-10-23T09:17:21.420Z,10.57
2022-10-23T09:19:55.987Z,9.93
2022-10-23T09:22:25.078Z,10.70
2022-10-23T09:24:54.018Z,10.20
2022-10-23T09:27:22.967Z,9.13
2022-10-23T09:29:53.753Z,10.60
2022-10-23T09:32:34.527Z,10.37
2022-10-23T09:35:03.614Z,10.20
2022-10-23T09:37:35.758Z,9.60
2022-10-23T09:40:21.914Z,9.63
2022-10-23T09:42:56.718Z,10.73
2022-10-23T09:45:29.427Z,10.07
2022-10-23T09:48:12.315Z,8.93
2022-10-23T09:50:49.288Z,8.63
2022-10-23T09:53:26.327Z,8.20
2022-10-23T09:55:58.412Z,8.33
2022-10-23T09:58:33.413Z,8.50
2022-10-23T10:01:03.276Z,8.73
2022-10-23T10:03:51.970Z,7.90
2022-10-23T10:06:28.140Z,8.40
2022-10-23T10:08:59.366Z,7.67
2022-10-23T10:11:36.022Z,7.53
2022-10-23T10:14:19.802Z,7.97
2022-10-23T10:16:53.374Z,7.00
2022-10-23T10:19:39.715Z,6.63
2022-10-23T10:22:21.135Z,7.57
2022-10-23T10:24:57.797Z,6.60
2022-10-23T10:27:44.851Z,6.60
2022-10-23T10:30:16.971Z,6.03
2022-10-23T10:32:51.315Z,6.77
2022-10-23T10:35:43.971Z,6.87
2022-10-23T10:38:38.140Z,6.27
2022-10-23T10:41:23.373Z,6.20
2022-10-23T10:44:04.231Z,6.53
2022-10-23T10:46:39.494Z,5.90
2022-10-23T10:49:16.200Z,6.00
2022-10-23T10:52:10.932Z,6.57
2022-10-23T10:54:53.586Z,5.70
2022-10-23T10:57:31.883Z,8.23
2022-10-23T11:00:04.411Z,6.07
2022-10-23T11:02:41.388Z,6.00
2022-10-23T11:05:28.867Z,5.83
2022-10-23T11:08:05.215Z,7.37
2022-10-23T11:10:37.419Z,5.83
2022-10-23T11:13:06.433Z,5.60
2022-10-23T11:15:41.723Z,5.07
2022-10-23T11:18:17.040Z,5.13
2022-10-23T11:21:01.153Z,4.57
2022-10-23T11:23:54.369Z,6.37
2022-10-23T11:26:36.531Z,5.20
2022-10-23T11:29:41.435Z,4.93
2022-10-23T11:32:35.104Z,4.13
2022-10-23T11:35:25.217Z,4.50
2022-10-23T11:38:02.618Z,5.03
2022-10-23T11:40:33.075Z,4.73
2022-10-23T11:43:02.033Z,4.27
2022-10-23T11:45:35.713Z,4.30
2022-10-23T11:48:06.535Z,4.00
2022-10-23T11:50:51.511Z,4.07
2022-10-23T11:53:38.145Z,3.60
2022-10-23T11:56:27.642Z,4.10
2022-10-23T11:59:00.145Z,3.70
2022-10-23T12:01:35.224Z,5.80
2022-10-23T12:04:16.931Z,4.87
2022-10-23T12:06:49.672Z,3.23
2022-10-23T12:09:26.530Z,2.83
2022-10-23T12:12:29.449Z,2.80
2022-10-23T12:15:20.930Z,2.47
2022-10-23T12:17:51.379Z,5.20
2022-10-23T12:20:37.799Z,2.70
2022-10-23T12:23:27.330Z,1.80
2022-10-23T12:26:10.158Z,2.50
2022-10-23T12:28:46.803Z,2.97
2022-10-23T12:31:30.339Z,3.73
2022-10-23T12:34:12.155Z,2.50
2022-10-23T12:36:54.956Z,2.53
2022-10-23T12:39:28.224Z,2.67
2022-10-23T12:41:57.737Z,2.30
2022-10-23T12:44:28.876Z,2.50
2022-10-23T12:47:00.448Z,2.40
2022-10-23T12:49:33.693Z,2.47
2022-10-23T12:52:05.039Z,2.50
2022-10-23T12:54:39.650Z,2.33
2022-10-23T12:57:23.505Z,2.60
2022-10-23T12:59:57.602Z,2.30
2022-10-23T13:02:28.569Z,2.33
2022-10-23T13:05:01.224Z,2.73
2022-10-23T13:07:34.819Z,2.60
2022-10-23T13:10:06.503Z,2.60
2022-10-23T13:12:41.198Z,2.20
2022-10-23T13:15:19.616Z,2.40
2022-10-23T13:18:02.535Z,2.50
2022-10-23T13:20:34.587Z,3.00
2022-10-23T13:23:11.999Z,2.60
2022-10-23T13:25:41.725Z,2.70
2022-10-23T13:28:23.736Z,2.50
2022-10-23T13:31:03.478Z,2.87
2022-10-23T13:33:35.583Z,2.80
2022-10-23T13:36:07.228Z,2.70
2022-10-23T13:38:37.940Z,2.83
2022-10-23T13:41:15.702Z,5.43
2022-10-23T13:43:45.960Z,2.50
2022-10-23T13:46:17.514Z,4.53
2022-10-23T13:48:47.153Z,3.83
2022-10-23T13:51:24.550Z,2.43
2022-10-23T13:53:56.010Z,2.80
2022-10-23T13:56:27.143Z,2.43
2022-10-23T13:58:56.380Z,2.57
2022-10-23T14:01:29.588Z,2.93
2022-10-23T14:03:59.565Z,3.10
2022-10-23T14:06:28.528Z,2.40
2022-10-23T14:08:57.858Z,2.70
2022-10-23T14:11:26.954Z,2.90
2022-10-23T14:13:56.146Z,2.53
2022-10-23T14:16:26.583Z,2.80
2022-10-23T14:18:55.937Z,2.70
2022-10-23T14:21:26.825Z,3.10
2022-10-23T14:23:56.199Z,2.80
2022-10-23T14:26:27.580Z,2.60
2022-10-23T14:28:59.559Z,2.83
2022-10-23T14:31:33.438Z,3.37
2022-10-23T14:34:02.257Z,2.70
2022-10-23T14:36:38.744Z,2.70
2022-10-23T14:39:19.301Z,2.90
2022-10-23T14:41:48.298Z,2.93
2022-10-23T14:44:17.169Z,3.00
2022-10-23T14:46:47.459Z,3.10
2022-10-23T14:49:16.285Z,4.53
2022-10-23T14:51:45.038Z,4.00
2022-10-23T14:54:14.046Z,2.73
2022-10-23T14:56:42.757Z,2.70
2022-10-23T14:59:12.521Z,2.83
2022-10-23T15:01:45.347Z,3.10
2022-10-23T15:04:17.890Z,3.40
2022-10-23T15:06:47.305Z,3.13
2022-10-23T15:09:19.399Z,2.93
2022-10-23T15:11:48.776Z,2.83
2022-10-23T15:14:17.540Z,2.83
2022-10-23T15:16:48.167Z,3.00
2022-10-23T15:19:19.025Z,3.00
2022-10-23T15:21:48.887Z,3.00
2022-10-23T15:24:18.634Z,3.27
2022-10-23T15:26:47.683Z,3.13
2022-10-23T15:29:16.689Z,3.30
2022-10-23T15:31:53.176Z,3.93
2022-10-23T15:34:26.462Z,3.13
2022-10-23T15:36:56.650Z,3.00
2022-10-23T15:39:27.572Z,3.20
2022-10-23T15:41:57.622Z,3.10
2022-10-23T15:44:29.237Z,3.20
2022-10-23T15:46:58.943Z,3.70
2022-10-23T15:49:30.545Z,3.50
2022-10-23T15:52:00.007Z,3.27
2022-10-23T15:54:31.938Z,3.27
2022-10-23T15:57:02.728Z,4.30
2022-10-23T15:59:32.640Z,3.40
2022-10-23T16:02:02.245Z,3.30
2022-10-23T16:04:33.278Z,3.40
2022-10-23T16:07:02.344Z,3.57
2022-10-23T16:09:31.359Z,5.40
2022-10-23T16:12:00.243Z,3.73
2022-10-23T16:14:29.351Z,3.47
2022-10-23T16:16:58.267Z,3.70
2022-10-23T16:19:26.942Z,4.07
2022-10-23T16:21:57.096Z,4.00
2022-10-23T16:24:26.252Z,5.03
2022-10-23T16:26:56.353Z,3.83
2022-10-23T16:29:26.143Z,3.90
2022-10-23T16:31:56.652Z,4.07
2022-10-23T16:34:25.471Z,4.07
2022-10-23T16:36:54.957Z,4.00
2022-10-23T16:39:36.044Z,3.97
2022-10-23T16:42:24.028Z,4.40
2022-10-23T16:45:06.083Z,4.53
2022-10-23T16:47:35.506Z,4.20
2022-10-23T16:50:04.801Z,4.40
2022-10-23T16:52:34.482Z,4.30
2022-10-23T16:55:05.363Z,4.10
2022-10-23T16:57:35.980Z,4.40
2022-10-23T17:00:05.927Z,4.20
2022-10-23T17:02:35.031Z,4.30
2022-10-23T17:05:04.540Z,5.70
2022-10-23T17:07:33.803Z,4.40
2022-10-23T17:10:04.538Z,4.50
2022-10-23T17:12:33.505Z,4.40
2022-10-23T17:15:02.166Z,4.27
2022-10-23T17:17:32.130Z,4.43
2022-10-23T17:20:01.327Z,4.27
2022-10-23T17:22:30.475Z,4.20
2022-10-23T17:24:59.752Z,4.13
2022-10-23T17:27:29.927Z,4.10
2022-10-23T17:29:59.012Z,4.30
2022-10-23T17:32:29.304Z,4.17
2022-10-23T17:34:58.591Z,3.80
2022-10-23T17:37:27.795Z,4.17
2022-10-23T17:40:00.924Z,5.40
2022-10-23T17:42:31.504Z,4.13
2022-10-23T17:45:00.356Z,4.00
2022-10-23T17:47:29.362Z,4.23
2022-10-23T17:49:58.289Z,4.10
2022-10-23T17:52:27.127Z,3.90
2022-10-23T17:54:55.886Z,4.33
2022-10-23T17:57:25.023Z,3.90
2022-10-23T17:59:55.555Z,4.27
2022-10-23T18:02:24.570Z,4.63
2022-10-23T18:04:53.531Z,4.10
2022-10-23T18:07:24.169Z,4.53
2022-10-23T18:09:53.124Z,3.80
2022-10-23T18:12:22.714Z,12.67
2022-10-23T18:14:51.625Z,4.13
2022-10-23T18:17:21.971Z,4.03
2022-10-23T18:19:51.608Z,4.13
2022-10-23T18:22:20.729Z,4.27
2022-10-23T18:24:49.876Z,4.70
2022-10-23T18:27:18.659Z,4.40
2022-10-23T18:29:47.322Z,4.43
2022-10-23T18:32:16.037Z,5.57
2022-10-23T18:34:46.506Z,4.20
2022-10-23T18:37:15.371Z,4.50
2022-10-23T18:39:45.299Z,4.70
2022-10-23T18:42:14.320Z,6.80
2022-10-23T18:44:46.925Z,5.40
2022-10-23T18:49:51.182Z,4.67
2022-10-23T18:52:20.036Z,4.70
2022-10-23T18:54:48.909Z,4.87
2022-10-23T18:57:17.616Z,4.30
2022-10-23T18:59:46.988Z,7.20
2022-10-23T19:02:16.093Z,4.00
2022-10-23T19:04:44.923Z,4.63
2022-10-23T19:07:15.393Z,4.60
2022-10-23T19:09:44.235Z,4.37
2022-10-23T19:14:43.273Z,4.20
2022-10-23T19:17:17.329Z,4.40
2022-10-23T19:19:50.703Z,4.93
2022-10-23T19:22:20.832Z,4.60
2022-10-23T19:24:55.294Z,5.10
2022-10-23T19:27:24.491Z,5.17
2022-10-23T19:29:55.005Z,4.53
2022-10-23T19:32:23.907Z,4.83
2022-10-23T19:34:52.908Z,4.40
2022-10-23T19:37:23.862Z,5.00
2022-10-23T19:39:52.730Z,4.63
2022-10-23T19:42:21.522Z,4.70
2022-10-23T19:44:50.739Z,4.50
2022-10-23T19:47:19.417Z,5.20
2022-10-23T19:49:50.657Z,6.37
2022-10-23T19:52:19.534Z,5.20
2022-10-23T19:54:49.910Z,4.80
2022-10-23T19:57:21.842Z,5.17
2022-10-23T19:59:52.118Z,4.97
2022-10-23T20:02:21.868Z,4.87
2022-10-23T20:04:51.256Z,5.63
2022-10-23T20:07:20.187Z,4.80
2022-10-23T20:09:50.659Z,6.47
2022-10-23T20:12:19.607Z,4.73
2022-10-23T20:14:48.296Z,5.17
2022-10-23T20:17:36.958Z,5.27
2022-10-23T20:20:45.949Z,5.30
2022-10-23T20:23:35.353Z,5.23
2022-10-23T20:26:06.999Z,4.83
2022-10-23T20:28:36.260Z,6.33
2022-10-23T20:31:08.315Z,5.23
2022-10-23T20:33:37.777Z,5.40
2022-10-23T20:36:08.543Z,4.97
2022-10-23T20:38:37.668Z,5.87
2022-10-23T20:41:08.029Z,4.90
2022-10-23T20:43:37.142Z,6.03
2022-10-23T20:46:07.690Z,6.23
2022-10-23T20:48:37.183Z,5.67
2022-10-23T20:51:07.009Z,6.27
2022-10-23T20:53:38.423Z,5.30
2022-10-23T20:56:10.192Z,5.80
2022-10-23T20:58:39.330Z,5.60
2022-10-23T21:01:09.943Z,5.87
2022-10-23T21:03:39.334Z,5.97
2022-10-23T21:06:11.235Z,6.70
2022-10-23T21:08:41.227Z,5.90
2022-10-23T21:11:15.110Z,5.20
2022-10-23T21:13:45.765Z,5.50
2022-10-23T21:16:16.866Z,5.37
2022-10-23T21:18:47.033Z,5.13
2022-10-23T21:21:19.116Z,5.30
2022-10-23T21:23:48.871Z,5.13
2022-10-23T21:26:21.606Z,5.20
2022-10-23T21:28:56.402Z,4.90
2022-10-23T21:31:35.844Z,5.37
2022-10-23T21:34:05.233Z,5.47
2022-10-23T21:36:48.222Z,5.03
2022-10-23T21:39:23.555Z,4.83
2022-10-23T21:41:54.078Z,5.10
2022-10-23T21:44:22.768Z,5.70
2022-10-23T21:46:51.627Z,5.13
2022-10-23T21:49:20.692Z,5.27
2022-10-23T21:51:49.737Z,5.43
2022-10-23T21:54:18.690Z,6.37
2022-10-23T21:56:49.836Z,5.13
2022-10-23T21:59:22.663Z,5.23
2022-10-23T22:01:51.628Z,5.50
2022-10-23T22:04:22.010Z,6.00
2022-10-23T22:06:51.618Z,6.00
2022-10-23T22:09:21.932Z,5.33
2022-10-23T22:11:51.449Z,6.60
2022-10-23T22:14:22.516Z,5.30
2022-10-23T22:16:52.052Z,5.23
2022-10-23T22:19:23.267Z,4.90
2022-10-23T22:21:52.907Z,5.00
2022-10-23T22:24:21.969Z,5.20
2022-10-23T22:26:52.962Z,5.37
2022-10-23T22:29:24.780Z,5.80
2022-10-23T22:31:54.004Z,5.70
2022-10-23T22:34:27.070Z,5.43
2022-10-23T22:37:02.971Z,4.97
2022-10-23T22:39:32.152Z,6.60
2022-10-23T22:42:00.959Z,5.43
2022-10-23T22:44:31.376Z,5.63
2022-10-23T22:47:00.067Z,6.90
2022-10-23T22:49:28.977Z,5.57
2022-10-23T22:51:57.679Z,5.67
2022-10-23T22:54:26.408Z,5.47
2022-10-23T22:56:55.525Z,5.53
2022-10-23T22:59:24.706Z,5.07
2022-10-23T23:01:55.158Z,5.40
2022-10-23T23:04:39.573Z,6.60
2022-10-23T23:07:09.900Z,5.43
2022-10-23T23:09:40.010Z,5.83
2022-10-23T23:12:10.701Z,5.57
2022-10-23T23:14:40.804Z,5.17
2022-10-23T23:17:11.105Z,5.03
2022-10-23T23:19:41.098Z,5.53
2022-10-23T23:22:10.086Z,5.30
2022-10-23T23:24:39.221Z,6.23
2022-10-23T23:27:08.131Z,5.63
2022-10-23T23:29:36.815Z,5.20
2022-10-23T23:32:06.929Z,7.20
2022-10-23T23:34:37.283Z,6.80
2022-10-23T23:37:06.354Z,5.33
2022-10-23T23:39:35.106Z,4.93
2022-10-23T23:42:03.839Z,5.87
2022-10-23T23:44:32.627Z,5.97
2022-10-23T23:47:01.453Z,6.47
2022-10-23T23:49:30.682Z,7.03
2022-10-23T23:52:01.035Z,7.20
2022-10-23T23:54:29.911Z,5.43
2022-10-23T23:57:01.318Z,5.10
2022-10-23T23:59:30.183Z,6.13
